Time;durP1;ratioP1;P1;durP2;ratioP2;P2;SDS_P1;SDS_P2;PMS_P1;PMS_P2;Temp;Humidity;BMP_temperature;BMP_pressure;BME280_temperature;BME280_humidity;BME280_pressure;Samples;Min_cycle;Max_cycle;Signal;HPM_P1;HPM_P2
2023/06/18 00:00:59;;;;;;;5.95;5.40;;;;;;;16.43;100.00;95514.63;5073993;28;20028;-72
2023/06/18 00:03:25;;;;;;;5.45;5.13;;;;;;;16.41;100.00;95508.66;5064235;28;20063;-72
2023/06/18 00:05:54;;;;;;;5.93;5.53;;;;;;;16.39;100.00;95503.56;5077603;28;20050;-72
2023/06/18 00:08:19;;;;;;;5.72;5.32;;;;;;;16.35;100.00;95506.75;5066017;28;20063;-72
2023/06/18 00:10:45;;;;;;;6.35;5.93;;;;;;;16.32;100.00;95498.13;5058885;28;20024;-72
2023/06/18 00:13:10;;;;;;;5.97;5.47;;;;;;;16.24;100.00;95508.03;5062067;28;20032;-73
2023/06/18 00:15:36;;;;;;;6.05;5.55;;;;;;;16.21;100.00;95511.84;5058643;28;20028;-72
2023/06/18 00:18:01;;;;;;;6.25;5.70;;;;;;;16.12;100.00;95513.75;5058946;28;20024;-72
2023/06/18 00:20:27;;;;;;;6.82;6.13;;;;;;;15.98;100.00;95510.06;5071964;28;21083;-72
2023/06/18 00:22:53;;;;;;;5.93;5.53;;;;;;;16.00;100.00;95520.53;5070727;28;20025;-72
2023/06/18 00:25:19;;;;;;;8.43;5.93;;;;;;;15.94;100.00;95508.78;5078713;28;20172;-72
2023/06/18 00:27:46;;;;;;;7.25;6.00;;;;;;;15.92;100.00;95510.81;5077092;28;20036;-73
2023/06/18 00:30:12;;;;;;;6.38;5.72;;;;;;;15.94;100.00;95511.44;5080353;28;20027;-72
2023/06/18 00:32:38;;;;;;;6.15;5.72;;;;;;;15.94;100.00;95513.28;5073076;28;20025;-72
2023/06/18 00:35:05;;;;;;;6.07;5.57;;;;;;;15.91;100.00;95509.16;5075562;28;20024;-72
2023/06/18 00:37:30;;;;;;;5.80;5.18;;;;;;;15.89;100.00;95511.16;5076508;28;20080;-72
2023/06/18 00:39:56;;;;;;;6.82;5.93;;;;;;;15.85;100.00;95515.16;5076797;28;20024;-72
2023/06/18 00:42:21;;;;;;;6.13;5.57;;;;;;;15.78;100.00;95508.91;5073404;28;20063;-72
2023/06/18 00:44:47;;;;;;;6.00;5.57;;;;;;;15.82;100.00;95510.22;5058555;28;20108;-73
2023/06/18 00:47:13;;;;;;;7.30;6.57;;;;;;;15.80;100.00;95502.41;5076283;28;20472;-73
2023/06/18 00:49:43;;;;;;;6.47;5.88;;;;;;;15.81;100.00;95501.41;5070430;28;20143;-72
2023/06/18 00:52:12;;;;;;;6.60;6.05;;;;;;;15.81;100.00;95500.59;5076467;28;20029;-72
2023/06/18 00:54:39;;;;;;;6.55;5.95;;;;;;;15.73;100.00;95486.38;5069949;28;20028;-72
2023/06/18 00:57:08;;;;;;;6.30;5.80;;;;;;;15.66;100.00;95488.13;5064000;28;20469;-72
2023/06/18 00:59:34;;;;;;;6.57;5.97;;;;;;;15.67;100.00;95494.22;5075186;28;20115;-72
2023/06/18 01:02:00;;;;;;;6.10;5.60;;;;;;;15.66;100.00;95482.81;5076417;28;20519;-72
2023/06/18 01:04:29;;;;;;;6.63;5.80;;;;;;;15.56;100.00;95492.81;5077312;28;20025;-72
2023/06/18 01:06:55;;;;;;;8.18;6.00;;;;;;;15.54;100.00;95487.72;5075134;28;20027;-72
2023/06/18 01:09:23;;;;;;;8.82;6.10;;;;;;;15.50;100.00;95485.59;5070203;28;20024;-72
2023/06/18 01:11:52;;;;;;;6.45;5.88;;;;;;;15.37;100.00;95476.41;5082533;28;20139;-72
2023/06/18 01:14:28;;;;;;;6.88;6.28;;;;;;;15.39;100.00;95477.06;5076474;28;20044;-72
2023/06/18 01:16:58;;;;;;;7.20;6.60;;;;;;;15.36;100.00;95474.72;5062455;28;20359;-72
2023/06/18 01:19:42;;;;;;;7.40;6.80;;;;;;;15.35;100.00;95459.00;5075668;28;20398;-72
2023/06/18 01:22:38;;;;;;;6.50;6.00;;;;;;;15.33;100.00;95456.53;5074832;28;20393;-72
2023/06/18 01:25:05;;;;;;;;;;;;;;;15.22;100.00;95457.75;5062367;28;20045;-72
2023/06/18 01:27:40;;;;;;;6.60;5.93;;;;;;;15.22;100.00;95454.31;5078399;28;19920;-72
2023/06/18 01:30:09;;;;;;;6.68;6.13;;;;;;;15.18;100.00;95448.50;5073841;28;20031;-72
2023/06/18 01:32:36;;;;;;;7.50;6.90;;;;;;;15.23;100.00;95445.34;5075808;28;20024;-73
2023/06/18 01:35:03;;;;;;;8.55;6.22;;;;;;;15.26;100.00;95442.34;5055374;28;20523;-72
2023/06/18 01:37:46;;;;;;;6.40;5.88;;;;;;;15.25;100.00;95436.22;5075359;28;20424;-72
2023/06/18 01:40:23;;;;;;;6.90;6.20;;;;;;;15.29;100.00;95428.72;5075584;28;20025;-72
2023/06/18 01:42:55;;;;;;;6.40;6.00;;;;;;;15.26;100.00;95424.63;5080634;28;21012;-72
2023/06/18 01:45:26;;;;;;;6.25;5.75;;;;;;;15.25;100.00;95420.31;5075418;28;20031;-73
2023/06/18 01:47:55;;;;;;;6.60;6.00;;;;;;;15.23;100.00;95418.81;5090448;28;20040;-72
2023/06/18 01:50:25;;;;;;;6.35;5.88;;;;;;;15.23;100.00;95418.81;5052595;28;20028;-72
2023/06/18 01:52:51;;;;;;;6.28;5.70;;;;;;;15.23;100.00;95418.81;5087275;28;20040;-72
2023/06/18 01:55:18;;;;;;;7.07;6.38;;;;;;;15.29;100.00;95418.09;5077740;28;20032;-72
2023/06/18 01:57:44;;;;;;;6.60;6.00;;;;;;;15.25;100.00;95411.50;5074645;28;20580;-72
2023/06/18 02:00:10;;;;;;;6.50;5.93;;;;;;;15.23;100.00;95385.16;5066237;28;20102;-72
2023/06/18 02:02:36;;;;;;;7.05;6.35;;;;;;;15.23;100.00;95384.34;5081597;28;20048;-72
2023/06/18 02:05:01;;;;;;;16.20;6.55;;;;;;;15.15;100.00;95387.88;5062319;28;20101;-72
2023/06/18 02:07:27;;;;;;;10.85;6.28;;;;;;;15.09;100.00;95388.63;5043670;28;20025;-72
2023/06/18 02:09:52;;;;;;;7.63;6.25;;;;;;;15.06;100.00;95392.44;5037570;28;20407;-72
2023/06/18 02:12:17;;;;;;;7.18;6.68;;;;;;;15.02;100.00;95383.19;5071880;28;20366;-72
2023/06/18 02:14:43;;;;;;;6.70;6.07;;;;;;;14.99;100.00;95392.31;5090780;28;20024;-72
2023/06/18 02:17:09;;;;;;;6.38;5.90;;;;;;;14.90;100.00;95390.72;5078097;28;20052;-72
2023/06/18 02:19:35;;;;;;;7.07;6.57;;;;;;;14.81;100.00;95379.34;5056364;28;20041;-72
2023/06/18 02:22:00;;;;;;;9.13;6.53;;;;;;;14.61;100.00;95381.63;5056187;28;20504;-72
2023/06/18 02:24:25;;;;;;;7.50;6.35;;;;;;;14.56;100.00;95379.47;5074575;28;20032;-72
2023/06/18 02:26:51;;;;;;;7.03;6.43;;;;;;;14.46;100.00;95384.16;5065028;28;20016;-72
2023/06/18 02:29:16;;;;;;;6.63;6.05;;;;;;;14.50;100.00;95374.91;5083457;28;20028;-72
2023/06/18 02:31:42;;;;;;;7.00;6.50;;;;;;;14.55;100.00;95369.88;5078032;28;20020;-72
2023/06/18 02:34:07;;;;;;;7.18;6.57;;;;;;;14.61;100.00;95368.38;5057029;28;20024;-72
2023/06/18 02:36:34;;;;;;;6.60;5.88;;;;;;;14.50;100.00;95364.28;5068215;28;20032;-72
2023/06/18 02:38:59;;;;;;;7.60;6.97;;;;;;;14.40;100.00;95371.63;5086530;28;20033;-72
2023/06/18 02:41:26;;;;;;;6.55;6.07;;;;;;;14.45;100.00;95371.91;5075186;28;20031;-72
2023/06/18 02:43:53;;;;;;;7.03;6.45;;;;;;;14.49;100.00;95365.28;5084567;28;20434;-72
2023/06/18 02:46:19;;;;;;;7.13;6.53;;;;;;;14.50;100.00;95360.81;5072581;28;20047;-72
2023/06/18 02:48:44;;;;;;;6.55;5.95;;;;;;;14.45;100.00;95359.50;5074314;28;20028;-72
2023/06/18 02:51:10;;;;;;;7.22;6.57;;;;;;;14.46;100.00;95362.97;5078673;28;20043;-72
2023/06/18 02:53:36;;;;;;;7.35;6.47;;;;;;;14.40;100.00;95355.72;5078129;28;20027;-72
2023/06/18 02:56:01;;;;;;;7.72;7.00;;;;;;;14.35;100.00;95350.13;5074996;28;20036;-72
2023/06/18 02:58:30;;;;;;;7.20;6.57;;;;;;;14.38;100.00;95350.63;5074453;28;20066;-72
2023/06/18 03:00:57;;;;;;;7.50;6.90;;;;;;;14.45;100.00;95350.72;5059246;28;20473;-72
2023/06/18 03:03:23;;;;;;;7.15;6.55;;;;;;;14.45;100.00;95350.72;5071975;28;20032;-72
2023/06/18 03:05:49;;;;;;;7.97;7.25;;;;;;;14.44;100.00;95346.44;5072132;28;20059;-72
2023/06/18 03:08:14;;;;;;;9.98;6.53;;;;;;;14.49;100.00;95356.50;5076383;28;20024;-72
2023/06/18 03:10:42;;;;;;;7.50;6.80;;;;;;;14.51;100.00;95352.69;5061332;28;20046;-72
2023/06/18 03:13:08;;;;;;;6.90;6.35;;;;;;;14.53;100.00;95340.09;5073993;28;20116;-73
2023/06/18 03:15:33;;;;;;;7.95;7.25;;;;;;;14.54;100.00;95341.75;5073051;28;20059;-72
2023/06/18 03:17:58;;;;;;;7.20;6.70;;;;;;;14.52;100.00;95338.47;5073392;28;20454;-72
2023/06/18 03:20:24;;;;;;;9.48;7.05;;;;;;;14.45;100.00;95340.13;5050986;28;20107;-72
2023/06/18 03:22:49;;;;;;;7.55;6.95;;;;;;;14.38;100.00;95337.38;5085930;28;20033;-72
2023/06/18 03:25:15;;;;;;;6.82;6.25;;;;;;;14.35;100.00;95331.59;5067683;28;20024;-72
2023/06/18 03:27:40;;;;;;;7.28;6.70;;;;;;;14.36;100.00;95325.31;5089355;28;20464;-72
2023/06/18 03:30:06;;;;;;;7.40;6.80;;;;;;;14.37;100.00;95319.00;5077950;28;20020;-72
2023/06/18 03:32:32;;;;;;;7.80;7.07;;;;;;;14.32;100.00;95315.06;5069912;28;20033;-72
2023/06/18 03:34:58;;;;;;;7.85;7.13;;;;;;;14.22;100.00;95316.28;5065878;28;20016;-72
2023/06/18 03:37:23;;;;;;;8.65;6.70;;;;;;;14.23;100.00;95321.38;5080192;28;20099;-72
2023/06/18 03:39:49;;;;;;;7.65;7.05;;;;;;;14.19;100.00;95328.03;5091823;28;20045;-72
2023/06/18 03:42:15;;;;;;;9.18;7.75;;;;;;;14.16;100.00;95328.38;5069741;28;20033;-72
2023/06/18 03:44:40;;;;;;;8.15;7.55;;;;;;;14.19;100.00;95328.03;5079260;28;20029;-72
2023/06/18 03:47:06;;;;;;;8.43;7.32;;;;;;;14.28;100.00;95340.25;5052372;28;20028;-72
2023/06/18 03:49:32;;;;;;;8.02;7.22;;;;;;;14.31;100.00;95308.13;5078025;28;20025;-72
2023/06/18 03:51:57;;;;;;;7.00;6.50;;;;;;;14.31;100.00;95318.72;5077855;28;20028;-72
2023/06/18 03:54:24;;;;;;;8.13;7.43;;;;;;;14.24;100.00;95312.44;5094014;28;20111;-72
2023/06/18 03:56:50;;;;;;;8.10;7.45;;;;;;;14.21;100.00;95312.81;5070220;28;20029;-73
2023/06/18 03:59:15;;;;;;;8.20;7.20;;;;;;;14.24;100.00;95315.09;5042926;28;20040;-72
2023/06/18 04:01:41;;;;;;;7.50;6.95;;;;;;;14.26;100.00;95299.88;5073084;28;20035;-72
2023/06/18 04:04:07;;;;;;;7.63;7.03;;;;;;;14.20;100.00;95303.22;5063057;28;20023;-72
2023/06/18 04:06:33;;;;;;;7.57;6.78;;;;;;;14.17;100.00;95288.53;5082047;28;20021;-72
2023/06/18 04:08:58;;;;;;;8.15;7.00;;;;;;;13.99;100.00;95288.75;5076491;28;20035;-72
2023/06/18 04:11:24;;;;;;;7.78;7.05;;;;;;;13.96;100.00;95275.88;5077377;28;20103;-72
2023/06/18 04:13:49;;;;;;;7.40;6.90;;;;;;;13.92;100.00;95277.22;5072993;28;20035;-72
2023/06/18 04:16:14;;;;;;;7.38;6.70;;;;;;;13.82;100.00;95273.97;5062148;28;20388;-72
2023/06/18 04:18:40;;;;;;;7.68;7.07;;;;;;;13.67;100.00;95276.50;5051587;28;20098;-72
2023/06/18 04:21:05;;;;;;;7.90;7.40;;;;;;;13.70;100.00;95282.28;5077169;28;20203;-72
2023/06/18 04:23:31;;;;;;;7.47;6.90;;;;;;;13.69;100.00;95243.59;5077067;28;20038;-72
2023/06/18 04:25:56;;;;;;;9.32;7.00;;;;;;;13.69;100.00;95240.94;5068844;28;20079;-72
2023/06/18 04:28:22;;;;;;;7.88;7.18;;;;;;;13.73;100.00;95234.31;5072438;28;20111;-72
2023/06/18 04:30:48;;;;;;;8.82;6.75;;;;;;;13.76;100.00;95243.75;5071401;28;20408;-72
2023/06/18 04:33:13;;;;;;;8.20;7.40;;;;;;;13.89;100.00;95227.31;5056325;28;20024;-72
2023/06/18 04:35:39;;;;;;;10.15;7.25;;;;;;;13.92;100.00;95239.34;5071262;28;20024;-72
2023/06/18 04:38:04;;;;;;;7.85;7.25;;;;;;;13.90;100.00;95235.03;5076822;28;20056;-73
2023/06/18 04:40:30;;;;;;;7.38;6.68;;;;;;;13.98;100.00;95238.66;5075954;28;20120;-72
2023/06/18 04:42:55;;;;;;;7.82;7.22;;;;;;;14.03;100.00;95226.53;5073044;28;20508;-72
2023/06/18 04:45:21;;;;;;;7.30;6.70;;;;;;;14.09;100.00;95226.84;5067372;28;20077;-72
2023/06/18 04:47:46;;;;;;;7.65;7.05;;;;;;;14.01;100.00;95233.03;5075229;28;20111;-72
2023/06/18 04:50:12;;;;;;;8.00;7.30;;;;;;;14.10;100.00;95225.84;5077068;28;20032;-73
2023/06/18 04:52:37;;;;;;;7.78;7.13;;;;;;;14.18;100.00;95220.50;5076432;28;20060;-72
2023/06/18 04:55:04;;;;;;;7.43;6.82;;;;;;;14.25;100.00;95213.50;5086017;28;20387;-72
2023/06/18 04:57:30;;;;;;;8.85;7.28;;;;;;;14.30;100.00;95211.16;5079964;28;20090;-72
2023/06/18 04:59:55;;;;;;;8.52;7.68;;;;;;;14.32;100.00;95221.56;5075832;28;20028;-72
2023/06/18 05:02:21;;;;;;;9.60;7.45;;;;;;;14.33;100.00;95213.44;5076482;28;20074;-72
2023/06/18 05:04:46;;;;;;;12.10;6.95;;;;;;;14.41;100.00;95222.31;5074996;28;20123;-72
2023/06/18 05:07:12;;;;;;;7.55;7.00;;;;;;;14.51;100.00;95222.91;5060793;28;20044;-72
2023/06/18 05:09:37;;;;;;;9.52;7.00;;;;;;;14.67;100.00;95202.56;5076323;28;20074;-72
2023/06/18 05:12:03;;;;;;;14.90;7.45;;;;;;;14.82;100.00;95200.81;5068309;28;20017;-72
2023/06/18 05:14:28;;;;;;;12.27;7.50;;;;;;;14.99;100.00;95203.31;5075860;28;20024;-72
2023/06/18 05:16:54;;;;;;;8.25;6.65;;;;;;;15.15;100.00;95197.00;5072048;28;20475;-72
2023/06/18 05:19:19;;;;;;;7.43;6.85;;;;;;;15.29;100.00;95190.88;5058187;28;20045;-72
2023/06/18 05:21:45;;;;;;;7.85;6.93;;;;;;;15.36;100.00;95188.28;5074189;28;20021;-72
2023/06/18 05:24:10;;;;;;;7.53;6.80;;;;;;;15.34;100.00;95190.31;5076233;28;20384;-72
2023/06/18 05:26:35;;;;;;;7.40;6.70;;;;;;;15.39;100.00;95187.94;5073482;28;20024;-72
2023/06/18 05:29:01;;;;;;;7.45;6.80;;;;;;;15.44;100.00;95185.56;5070566;28;20063;-72
2023/06/18 05:31:28;;;;;;;7.18;6.57;;;;;;;15.53;100.00;95186.28;5064384;28;20021;-72
2023/06/18 05:33:54;;;;;;;7.35;6.75;;;;;;;15.63;100.00;95191.31;5075880;28;20017;-72
2023/06/18 05:36:22;;;;;;;8.15;6.75;;;;;;;15.83;100.00;95193.38;5057460;28;20036;-72
2023/06/18 05:38:48;;;;;;;7.07;6.50;;;;;;;15.99;100.00;95187.84;5063405;28;20021;-72
2023/06/18 05:41:13;;;;;;;7.03;6.35;;;;;;;16.08;100.00;95179.78;5075306;28;20040;-72
2023/06/18 05:43:39;;;;;;;7.07;6.38;;;;;;;16.19;100.00;95184.56;5081653;28;20020;-72
2023/06/18 05:46:04;;;;;;;6.60;6.00;;;;;;;16.29;100.00;95182.44;5075264;28;20024;-72
2023/06/18 05:48:30;;;;;;;6.57;6.03;;;;;;;16.35;100.00;95162.22;5075585;28;20056;-72
2023/06/18 05:50:55;;;;;;;6.30;5.80;;;;;;;16.44;100.00;95160.25;5075963;28;20017;-72
2023/06/18 05:53:20;;;;;;;6.20;5.80;;;;;;;16.51;100.00;95166.47;5062979;28;20098;-72
2023/06/18 05:55:46;;;;;;;6.85;6.22;;;;;;;16.60;100.00;95178.59;5079606;28;20016;-72
2023/06/18 05:58:11;;;;;;;6.50;6.00;;;;;;;16.72;100.00;95178.09;5081804;28;20013;-72
2023/06/18 06:00:37;;;;;;;6.85;6.30;;;;;;;16.86;100.00;95194.94;5069004;28;20048;-72
2023/06/18 06:03:02;;;;;;;7.07;5.88;;;;;;;17.00;100.00;95199.34;5067148;28;20032;-72
2023/06/18 06:05:27;;;;;;;6.90;6.30;;;;;;;17.12;100.00;95215.59;5081206;28;20028;-73
2023/06/18 06:07:53;;;;;;;6.57;5.97;;;;;;;17.27;100.00;95201.38;5065745;28;20425;-72
2023/06/18 06:10:19;;;;;;;6.97;6.38;;;;;;;17.45;100.00;95203.50;5063905;28;20021;-72
2023/06/18 06:12:45;;;;;;;6.15;5.65;;;;;;;17.63;100.00;95204.81;5067938;28;20105;-72
2023/06/18 06:15:11;;;;;;;6.10;5.63;;;;;;;17.75;100.00;95197.91;5058606;28;20052;-72
2023/06/18 06:17:37;;;;;;;7.78;5.82;;;;;;;17.89;100.00;95183.63;5056506;28;20025;-72
2023/06/18 06:20:03;;;;;;;6.15;5.63;;;;;;;18.08;100.00;95183.91;5057550;28;20049;-72
2023/06/18 06:22:28;;;;;;;6.90;6.18;;;;;;;18.39;100.00;95177.22;5064991;28;20020;-72
2023/06/18 06:24:54;;;;;;;6.22;5.72;;;;;;;18.61;100.00;95159.16;5084161;28;20023;-72
2023/06/18 06:27:20;;;;;;;6.25;5.63;;;;;;;18.80;100.00;95162.03;5044680;28;20027;-72
2023/06/18 06:29:45;;;;;;;8.68;6.05;;;;;;;18.79;100.00;95178.22;5062469;28;20099;-72
2023/06/18 06:32:11;;;;;;;6.07;5.47;;;;;;;18.70;100.00;95191.75;5080461;28;20028;-72
2023/06/18 06:34:36;;;;;;;6.10;5.60;;;;;;;18.80;100.00;95193.22;5078783;28;20859;-72
2023/06/18 06:37:02;;;;;;;5.38;5.05;;;;;;;18.95;100.00;95206.34;5052289;28;20024;-72
2023/06/18 06:39:27;;;;;;;7.47;5.55;;;;;;;19.19;100.00;95207.53;5074626;28;20043;-72
2023/06/18 06:41:52;;;;;;;6.15;5.65;;;;;;;19.58;100.00;95205.00;5074774;28;20016;-72
2023/06/18 06:44:18;;;;;;;8.40;5.55;;;;;;;20.01;100.00;95227.66;5068220;28;20016;-72
2023/06/18 06:46:43;;;;;;;5.85;5.35;;;;;;;20.45;100.00;95250.03;5077084;28;20174;-72
2023/06/18 06:49:09;;;;;;;6.28;5.78;;;;;;;20.75;100.00;95268.13;5056665;28;20039;-72
2023/06/18 06:51:35;;;;;;;6.38;5.70;;;;;;;21.05;100.00;95282.78;5068077;28;20384;-72
2023/06/18 06:54:01;;;;;;;5.47;5.05;;;;;;;21.32;100.00;95307.47;5077735;28;20832;-72
2023/06/18 06:56:26;;;;;;;5.63;5.13;;;;;;;21.52;100.00;95319.03;5074502;28;20116;-72
2023/06/18 06:58:52;;;;;;;5.28;4.88;;;;;;;21.67;100.00;95340.19;5078191;28;20096;-71
2023/06/18 07:01:19;;;;;;;5.25;4.85;;;;;;;21.81;100.00;95373.00;5048208;28;20052;-72
2023/06/18 07:03:45;;;;;;;6.65;5.25;;;;;;;21.82;100.00;95394.22;5069153;28;20028;-72
2023/06/18 07:06:11;;;;;;;5.47;4.95;;;;;;;22.16;100.00;95393.88;5084358;28;20341;-72
2023/06/18 07:08:36;;;;;;;5.85;5.25;;;;;;;22.52;100.00;95415.59;5058976;28;20021;-69
2023/06/18 07:11:02;;;;;;;5.65;5.15;;;;;;;22.92;100.00;95425.03;5075064;28;20039;-71
2023/06/18 07:13:27;;;;;;;5.22;4.72;;;;;;;23.06;100.00;95442.56;5075670;28;20016;-71
2023/06/18 07:15:53;;;;;;;5.75;5.15;;;;;;;23.21;100.00;95431.44;5077425;28;20029;-70
2023/06/18 07:18:18;;;;;;;6.38;5.60;;;;;;;23.44;100.00;95457.56;5078053;28;20020;-70
2023/06/18 07:20:43;;;;;;;5.20;4.75;;;;;;;23.23;100.00;95460.75;5051109;28;20043;-71
2023/06/18 07:23:09;;;;;;;5.72;4.85;;;;;;;23.05;100.00;95473.16;5087033;28;20055;-71
2023/06/18 07:25:34;;;;;;;4.85;4.45;;;;;;;22.73;100.00;95459.94;5087767;28;20028;-70
2023/06/18 07:28:00;;;;;;;5.45;5.00;;;;;;;22.98;100.00;95454.44;5076649;28;20028;-70
2023/06/18 07:30:25;;;;;;;5.25;4.85;;;;;;;23.20;100.00;95458.50;5075331;28;20107;-70
2023/06/18 07:32:50;;;;;;;5.38;4.93;;;;;;;23.15;100.00;95443.91;5066659;28;20028;-70
2023/06/18 07:35:16;;;;;;;4.93;4.53;;;;;;;23.57;100.00;95482.63;5077364;28;20024;-72
2023/06/18 07:37:41;;;;;;;4.90;4.53;;;;;;;24.18;100.00;95504.84;5083516;28;20351;-69
2023/06/18 07:40:08;;;;;;;5.47;4.97;;;;;;;24.60;100.00;95517.34;5066248;28;20107;-70
2023/06/18 07:42:34;;;;;;;4.78;4.40;;;;;;;25.11;100.00;95519.53;5081064;28;20020;-70
2023/06/18 07:45:00;;;;;;;5.30;4.90;;;;;;;25.06;100.00;95530.16;5064769;28;20024;-70
2023/06/18 07:47:25;;;;;;;4.75;4.45;;;;;;;24.67;100.00;95536.06;5077421;28;20107;-74
2023/06/18 07:49:51;;;;;;;5.47;5.03;;;;;;;24.10;100.00;95533.94;5080690;28;20048;-71
2023/06/18 07:52:17;;;;;;;5.05;4.65;;;;;;;23.79;100.00;95543.91;5076452;28;20027;-70
2023/06/18 07:54:42;;;;;;;5.10;4.57;;;;;;;24.09;100.00;95537.66;5080397;28;20233;-71
2023/06/18 07:57:08;;;;;;;5.57;5.10;;;;;;;24.64;100.00;95535.69;5081175;28;20040;-71
2023/06/18 07:59:33;;;;;;;5.18;4.78;;;;;;;24.83;100.00;95533.75;5067349;28;20054;-71
2023/06/18 08:01:59;;;;;;;7.22;4.95;;;;;;;25.32;100.00;95534.19;5075321;28;20059;-71
2023/06/18 08:04:24;;;;;;;8.20;5.03;;;;;;;25.65;100.00;95534.56;5070058;28;20028;-72
2023/06/18 08:06:50;;;;;;;5.55;5.00;;;;;;;25.96;100.00;95535.09;5085169;28;20026;-72
2023/06/18 08:09:17;;;;;;;5.85;5.40;;;;;;;26.07;100.00;95530.69;5049856;28;20033;-71
2023/06/18 08:11:43;;;;;;;5.72;5.25;;;;;;;26.16;100.00;95539.19;5080206;28;20155;-72
2023/06/18 08:14:08;;;;;;;5.07;4.78;;;;;;;25.89;100.00;95537.97;5077179;28;20497;-72
2023/06/18 08:16:34;;;;;;;5.45;5.05;;;;;;;26.02;100.00;95536.84;5058920;28;20392;-71
2023/06/18 08:18:59;;;;;;;5.63;5.10;;;;;;;25.99;100.00;95536.50;5080256;28;20036;-71
2023/06/18 08:21:25;;;;;;;5.30;4.90;;;;;;;25.96;100.00;95537.00;5077261;28;20360;-72
2023/06/18 08:23:51;;;;;;;6.13;5.25;;;;;;;26.00;100.00;95541.66;5081640;28;20033;-71
2023/06/18 08:26:19;;;;;;;5.03;4.63;;;;;;;26.24;100.00;95555.03;5069027;28;20028;-69
2023/06/18 08:28:44;;;;;;;5.43;5.03;;;;;;;26.29;100.00;95552.41;5082426;28;20489;-71
2023/06/18 08:31:10;;;;;;;5.38;4.97;;;;;;;26.21;100.00;95542.03;5080262;28;20430;-71
2023/06/18 08:33:35;;;;;;;5.13;4.63;;;;;;;26.58;100.00;95549.59;5054940;28;20403;-71
2023/06/18 08:36:00;;;;;;;5.07;4.68;;;;;;;27.03;100.00;95538.91;5055225;28;20115;-71
2023/06/18 08:38:26;;;;;;;4.80;4.50;;;;;;;26.90;100.00;95544.69;5076841;28;20071;-71
2023/06/18 08:41:01;;;;;;;4.95;4.55;;;;;;;27.27;100.00;95544.88;5076486;28;20769;-71
2023/06/18 08:43:31;;;;;;;4.97;4.57;;;;;;;27.44;100.00;95546.69;5076294;28;20020;-71
2023/06/18 08:46:02;;;;;;;5.40;4.93;;;;;;;27.53;100.00;95539.78;5063038;28;20048;-71
2023/06/18 08:48:29;;;;;;;5.15;4.75;;;;;;;27.54;100.00;95543.31;5087569;28;20020;-72
2023/06/18 08:51:16;;;;;;;5.07;4.63;;;;;;;27.67;100.00;95545.63;5074580;28;20043;-71
2023/06/18 08:53:49;;;;;;;4.75;4.45;;;;;;;27.84;100.00;95534.69;5069533;28;20107;-71
2023/06/18 08:56:17;;;;;;;4.72;4.43;;;;;;;27.82;100.00;95533.31;5067549;28;20016;-71
2023/06/18 08:58:57;;;;;;;4.70;4.40;;;;;;;27.54;100.00;95532.50;5064734;28;20013;-72
2023/06/18 09:01:23;;;;;;;6.13;5.60;;;;;;;28.19;100.00;95529.06;5064009;28;20082;-71
2023/06/18 09:03:49;;;;;;;7.57;4.85;;;;;;;27.83;100.00;95529.56;5075047;28;20119;-72
2023/06/18 09:06:15;;;;;;;5.45;4.40;;;;;;;27.81;100.00;95534.41;5068233;28;20052;-71
2023/06/18 09:08:40;;;;;;;5.55;5.13;;;;;;;27.92;100.00;95528.00;5070090;28;20021;-71
2023/06/18 09:11:06;;;;;;;5.28;4.80;;;;;;;27.69;100.00;95527.25;5075766;28;20104;-71
2023/06/18 09:13:33;;;;;;;5.05;4.53;;;;;;;27.49;100.00;95527.00;5057145;28;20012;-73
2023/06/18 09:16:00;;;;;;;5.25;4.82;;;;;;;27.29;100.00;95515.72;5047588;28;20040;-71
2023/06/18 09:18:25;;;;;;;4.68;4.28;;;;;;;27.27;100.00;95515.16;5075861;28;20041;-72
2023/06/18 09:20:54;;;;;;;5.60;5.13;;;;;;;27.27;100.00;95517.03;5065865;28;20031;-72
2023/06/18 09:23:20;;;;;;;5.28;4.90;;;;;;;26.95;100.00;95520.44;5075185;28;20024;-72
2023/06/18 09:25:53;;;;;;;5.90;4.35;;;;;;;27.23;100.00;95524.84;5072780;28;20116;-72
2023/06/18 09:28:19;;;;;;;4.65;4.35;;;;;;;27.38;100.00;95515.25;5067775;28;20028;-73
2023/06/18 09:30:51;;;;;;;7.45;4.88;;;;;;;27.64;100.00;95521.00;5065288;28;20021;-72
2023/06/18 09:33:35;;;;;;;5.50;5.00;;;;;;;27.57;100.00;95523.88;5071982;28;20056;-72
2023/06/18 09:36:03;;;;;;;5.97;5.05;;;;;;;27.67;100.00;95525.88;5070051;28;20067;-71
2023/06/18 09:38:47;;;;;;;5.68;4.95;;;;;;;27.91;100.00;95529.06;5050979;28;20044;-71
2023/06/18 09:41:13;;;;;;;5.32;4.82;;;;;;;27.76;100.00;95535.16;5072806;28;20025;-71
2023/06/18 09:43:43;;;;;;;5.88;5.07;;;;;;;27.32;100.00;95519.81;5064139;28;20029;-71
2023/06/18 09:46:09;;;;;;;5.78;4.90;;;;;;;27.11;100.00;95522.28;5067837;28;20029;-71
2023/06/18 09:48:45;;;;;;;6.15;5.38;;;;;;;26.87;100.00;95519.81;5073646;28;20123;-71
2023/06/18 09:51:11;;;;;;;5.05;4.65;;;;;;;26.88;100.00;95515.22;5052815;28;20024;-70
2023/06/18 09:53:36;;;;;;;5.10;4.70;;;;;;;26.99;100.00;95516.16;5072939;28;20488;-71
2023/06/18 09:56:13;;;;;;;5.70;5.20;;;;;;;26.62;100.00;95509.44;5087326;28;20100;-71
2023/06/18 09:58:41;;;;;;;5.40;5.00;;;;;;;26.16;100.00;95512.22;5066469;28;20435;-71
2023/06/18 10:01:07;;;;;;;5.65;5.20;;;;;;;25.63;100.00;95514.31;5062930;28;20029;-71
2023/06/18 10:03:34;;;;;;;6.30;5.80;;;;;;;25.21;100.00;95513.53;5085117;28;20052;-73
2023/06/18 10:06:17;;;;;;;5.32;4.93;;;;;;;25.25;100.00;95511.97;5080277;28;20039;-70
2023/06/18 10:08:47;;;;;;;5.80;5.30;;;;;;;25.34;100.00;95519.66;5064046;28;20100;-71
2023/06/18 10:11:14;;;;;;;5.65;5.20;;;;;;;25.06;100.00;95514.00;5073220;28;20501;-74
2023/06/18 10:13:50;;;;;;;6.10;5.65;;;;;;;24.64;100.00;95511.47;5066164;28;20039;-72
2023/06/18 10:16:18;;;;;;;6.30;5.53;;;;;;;24.32;100.00;95518.06;5074534;28;20412;-73
2023/06/18 10:18:57;;;;;;;6.20;5.70;;;;;;;24.06;100.00;95520.13;5074284;28;20049;-73
2023/06/18 10:21:24;;;;;;;7.60;5.75;;;;;;;24.27;100.00;95517.94;5072067;28;20162;-75
2023/06/18 10:23:55;;;;;;;6.40;5.90;;;;;;;24.14;100.00;95532.41;5070116;28;20404;-76
2023/06/18 10:26:21;;;;;;;6.40;5.90;;;;;;;24.03;100.00;95534.88;5061223;28;20035;-74
2023/06/18 10:28:48;;;;;;;6.80;6.15;;;;;;;23.76;100.00;95529.03;5076734;28;20024;-72
2023/06/18 10:31:14;;;;;;;6.70;6.10;;;;;;;23.53;100.00;95529.78;5079256;28;20028;-78
2023/06/18 10:33:41;;;;;;;7.20;6.40;;;;;;;23.48;100.00;95525.09;5075052;28;20043;-76
2023/06/18 10:36:07;;;;;;;6.70;6.10;;;;;;;23.44;100.00;95515.88;5079172;28;20024;-80
2023/06/18 10:38:35;;;;;;;7.15;6.53;;;;;;;23.55;100.00;95512.38;5068628;28;20048;-80
2023/06/18 10:41:18;;;;;;;7.00;6.50;;;;;;;23.41;100.00;95511.75;5075037;28;20459;-79
2023/06/18 10:43:48;;;;;;;7.72;6.63;;;;;;;23.41;100.00;95501.00;5078891;28;20020;-80
2023/06/18 10:46:14;;;;;;;6.93;6.32;;;;;;;23.37;100.00;95499.84;5077002;28;20071;-78
2023/06/18 10:48:40;;;;;;;7.30;6.70;;;;;;;23.39;100.00;95510.34;5074272;28;20032;-81
2023/06/18 10:51:17;;;;;;;7.57;6.90;;;;;;;23.50;100.00;95503.38;5073192;28;20086;-77
2023/06/18 10:53:47;;;;;;;8.50;6.57;;;;;;;23.42;100.00;95499.13;5073865;28;20464;-75
2023/06/18 10:56:15;;;;;;;7.63;6.50;;;;;;;23.17;100.00;95497.38;5089420;28;20480;-72
2023/06/18 10:58:42;;;;;;;6.15;5.65;;;;;;;23.08;100.00;95491.47;5075036;28;20317;-72
2023/06/18 11:01:26;;;;;;;6.47;5.97;;;;;;;23.16;100.00;95485.81;5050148;28;20024;-72
2023/06/18 11:04:05;;;;;;;6.78;6.15;;;;;;;23.19;100.00;95492.59;5070920;28;20020;-74
2023/06/18 11:06:31;;;;;;;7.25;6.47;;;;;;;23.18;100.00;95496.31;5073983;28;20051;-74
2023/06/18 11:08:56;;;;;;;6.72;6.22;;;;;;;23.07;100.00;95489.84;5072634;28;20024;-72
2023/06/18 11:11:24;;;;;;;7.75;7.05;;;;;;;22.97;100.00;95481.53;5045665;28;20035;-75
2023/06/18 11:13:59;;;;;;;8.40;6.75;;;;;;;22.86;100.00;95489.28;5072142;28;20566;-73
2023/06/18 11:16:24;;;;;;;8.60;7.30;;;;;;;22.81;100.00;95478.41;5063566;28;20020;-78
2023/06/18 11:18:53;;;;;;;8.20;7.50;;;;;;;22.69;100.00;95478.31;5074954;28;20501;-75
2023/06/18 11:21:20;;;;;;;7.85;7.18;;;;;;;22.73;100.00;95478.72;5073656;28;20025;-71
2023/06/18 11:23:48;;;;;;;7.72;7.13;;;;;;;22.93;100.00;95467.72;5073342;28;20194;-81